sensor_id;sensor_type;location;lat;lon;timestamp;temperature;humidity
47576;DHT22;33304;52.456;13.328;2022-07-18T00:01:08;17.80;15.60
47576;DHT22;33304;52.456;13.328;2022-07-18T00:03:35;17.90;15.20
47576;DHT22;33304;52.456;13.328;2022-07-18T00:06:02;17.90;15.60
47576;DHT22;33304;52.456;13.328;2022-07-18T00:08:29;17.90;15.10
47576;DHT22;33304;52.456;13.328;2022-07-18T00:10:56;18.00;14.40
47576;DHT22;33304;52.456;13.328;2022-07-18T00:13:23;18.10;14.40
47576;DHT22;33304;52.456;13.328;2022-07-18T00:15:52;18.00;13.60
47576;DHT22;33304;52.456;13.328;2022-07-18T00:18:19;18.00;14.20
47576;DHT22;33304;52.456;13.328;2022-07-18T00:20:46;18.00;14.40
47576;DHT22;33304;52.456;13.328;2022-07-18T00:23:13;18.10;14.50
47576;DHT22;33304;52.456;13.328;2022-07-18T00:25:40;17.90;14.60
47576;DHT22;33304;52.456;13.328;2022-07-18T00:28:07;17.90;14.80
47576;DHT22;33304;52.456;13.328;2022-07-18T00:30:37;17.90;15.20
47576;DHT22;33304;52.456;13.328;2022-07-18T00:33:05;18.00;14.30
47576;DHT22;33304;52.456;13.328;2022-07-18T00:35:32;18.10;15.60
47576;DHT22;33304;52.456;13.328;2022-07-18T00:38:00;18.10;15.20
47576;DHT22;33304;52.456;13.328;2022-07-18T00:40:28;18.00;14.50
47576;DHT22;33304;52.456;13.328;2022-07-18T00:42:55;18.00;14.20
47576;DHT22;33304;52.456;13.328;2022-07-18T00:45:23;18.00;14.60
47576;DHT22;33304;52.456;13.328;2022-07-18T00:47:50;18.00;14.60
47576;DHT22;33304;52.456;13.328;2022-07-18T00:50:19;18.00;14.30
47576;DHT22;33304;52.456;13.328;2022-07-18T00:52:46;18.00;14.20
47576;DHT22;33304;52.456;13.328;2022-07-18T00:55:14;17.90;14.30
47576;DHT22;33304;52.456;13.328;2022-07-18T00:57:42;17.90;14.50
47576;DHT22;33304;52.456;13.328;2022-07-18T01:00:12;17.90;14.70
47576;DHT22;33304;52.456;13.328;2022-07-18T01:02:57;17.90;15.20
47576;DHT22;33304;52.456;13.328;2022-07-18T01:05:26;17.90;15.00
47576;DHT22;33304;52.456;13.328;2022-07-18T01:07:53;17.90;15.00
47576;DHT22;33304;52.456;13.328;2022-07-18T01:10:21;17.80;15.30
47576;DHT22;33304;52.456;13.328;2022-07-18T01:12:48;17.80;15.70
47576;DHT22;33304;52.456;13.328;2022-07-18T01:15:15;17.90;15.60
47576;DHT22;33304;52.456;13.328;2022-07-18T01:17:42;17.90;16.40
47576;DHT22;33304;52.456;13.328;2022-07-18T01:20:11;17.90;15.70
47576;DHT22;33304;52.456;13.328;2022-07-18T01:22:39;17.80;16.00
47576;DHT22;33304;52.456;13.328;2022-07-18T01:25:09;17.80;16.30
47576;DHT22;33304;52.456;13.328;2022-07-18T01:27:36;17.80;16.10
47576;DHT22;33304;52.456;13.328;2022-07-18T01:30:05;17.80;16.30
47576;DHT22;33304;52.456;13.328;2022-07-18T01:32:33;17.80;16.60
47576;DHT22;33304;52.456;13.328;2022-07-18T01:35:00;17.70;16.80
47576;DHT22;33304;52.456;13.328;2022-07-18T01:37:27;17.70;17.70
47576;DHT22;33304;52.456;13.328;2022-07-18T01:39:56;17.60;17.20
47576;DHT22;33304;52.456;13.328;2022-07-18T01:42:23;17.50;17.60
47576;DHT22;33304;52.456;13.328;2022-07-18T01:44:50;17.40;17.50
47576;DHT22;33304;52.456;13.328;2022-07-18T01:47:17;17.30;17.50
47576;DHT22;33304;52.456;13.328;2022-07-18T01:49:44;17.30;17.50
47576;DHT22;33304;52.456;13.328;2022-07-18T01:52:12;17.30;17.50
47576;DHT22;33304;52.456;13.328;2022-07-18T01:54:39;17.30;17.50
47576;DHT22;33304;52.456;13.328;2022-07-18T01:57:08;17.30;17.50
47576;DHT22;33304;52.456;13.328;2022-07-18T01:59:36;17.20;17.40
47576;DHT22;33304;52.456;13.328;2022-07-18T02:02:04;17.10;17.30
47576;DHT22;33304;52.456;13.328;2022-07-18T02:04:35;17.10;17.60
47576;DHT22;33304;52.456;13.328;2022-07-18T02:07:20;17.20;17.50
47576;DHT22;33304;52.456;13.328;2022-07-18T02:09:48;17.30;17.50
47576;DHT22;33304;52.456;13.328;2022-07-18T02:12:16;17.20;17.40
47576;DHT22;33304;52.456;13.328;2022-07-18T02:14:43;17.20;17.40
47576;DHT22;33304;52.456;13.328;2022-07-18T02:17:10;17.10;18.30
47576;DHT22;33304;52.456;13.328;2022-07-18T02:19:38;17.10;18.60
47576;DHT22;33304;52.456;13.328;2022-07-18T02:22:05;16.90;19.20
47576;DHT22;33304;52.456;13.328;2022-07-18T02:24:32;16.70;20.10
47576;DHT22;33304;52.456;13.328;2022-07-18T02:27:00;16.60;20.70
47576;DHT22;33304;52.456;13.328;2022-07-18T02:29:29;16.50;21.00
47576;DHT22;33304;52.456;13.328;2022-07-18T02:31:56;16.50;21.50
47576;DHT22;33304;52.456;13.328;2022-07-18T02:34:23;16.60;21.80
47576;DHT22;33304;52.456;13.328;2022-07-18T02:36:50;16.80;21.60
47576;DHT22;33304;52.456;13.328;2022-07-18T02:39:18;16.90;21.20
47576;DHT22;33304;52.456;13.328;2022-07-18T02:41:46;16.80;21.30
47576;DHT22;33304;52.456;13.328;2022-07-18T02:44:13;16.70;21.70
47576;DHT22;33304;52.456;13.328;2022-07-18T02:46:42;16.70;21.50
47576;DHT22;33304;52.456;13.328;2022-07-18T02:49:09;16.70;21.80
47576;DHT22;33304;52.456;13.328;2022-07-18T02:51:53;16.60;22.00
47576;DHT22;33304;52.456;13.328;2022-07-18T02:54:21;16.60;21.80
47576;DHT22;33304;52.456;13.328;2022-07-18T02:56:49;16.60;22.30
47576;DHT22;33304;52.456;13.328;2022-07-18T02:59:16;16.40;22.10
47576;DHT22;33304;52.456;13.328;2022-07-18T03:01:45;16.20;22.30
47576;DHT22;33304;52.456;13.328;2022-07-18T03:04:12;16.10;22.70
47576;DHT22;33304;52.456;13.328;2022-07-18T03:06:40;16.10;22.90
47576;DHT22;33304;52.456;13.328;2022-07-18T03:09:07;16.10;22.80
47576;DHT22;33304;52.456;13.328;2022-07-18T03:11:35;16.10;22.90
47576;DHT22;33304;52.456;13.328;2022-07-18T03:14:02;16.20;22.80
47576;DHT22;33304;52.456;13.328;2022-07-18T03:16:29;16.20;22.60
47576;DHT22;33304;52.456;13.328;2022-07-18T03:18:58;16.30;22.60
47576;DHT22;33304;52.456;13.328;2022-07-18T03:21:25;16.30;22.60
47576;DHT22;33304;52.456;13.328;2022-07-18T03:23:52;16.30;22.80
47576;DHT22;33304;52.456;13.328;2022-07-18T03:26:19;16.30;22.60
47576;DHT22;33304;52.456;13.328;2022-07-18T03:28:47;16.20;22.70
47576;DHT22;33304;52.456;13.328;2022-07-18T03:31:14;16.30;23.20
47576;DHT22;33304;52.456;13.328;2022-07-18T03:33:41;16.40;22.80
47576;DHT22;33304;52.456;13.328;2022-07-18T03:36:10;16.50;22.80
47576;DHT22;33304;52.456;13.328;2022-07-18T03:38:37;16.40;22.60
47576;DHT22;33304;52.456;13.328;2022-07-18T03:41:09;16.50;22.70
47576;DHT22;33304;52.456;13.328;2022-07-18T03:43:37;16.40;22.90
47576;DHT22;33304;52.456;13.328;2022-07-18T03:46:05;16.30;23.10
47576;DHT22;33304;52.456;13.328;2022-07-18T03:48:32;16.40;23.10
47576;DHT22;33304;52.456;13.328;2022-07-18T03:50:59;16.40;23.00
47576;DHT22;33304;52.456;13.328;2022-07-18T03:53:30;16.50;22.90
47576;DHT22;33304;52.456;13.328;2022-07-18T03:55:57;16.50;22.90
47576;DHT22;33304;52.456;13.328;2022-07-18T03:58:24;16.60;23.20
47576;DHT22;33304;52.456;13.328;2022-07-18T04:00:52;16.60;22.50
47576;DHT22;33304;52.456;13.328;2022-07-18T04:03:19;16.50;22.90
47576;DHT22;33304;52.456;13.328;2022-07-18T04:05:46;16.40;22.90
47576;DHT22;33304;52.456;13.328;2022-07-18T04:08:14;16.50;23.00
47576;DHT22;33304;52.456;13.328;2022-07-18T04:10:43;16.60;22.90
47576;DHT22;33304;52.456;13.328;2022-07-18T04:13:10;16.70;22.50
47576;DHT22;33304;52.456;13.328;2022-07-18T04:15:38;16.50;22.20
47576;DHT22;33304;52.456;13.328;2022-07-18T04:18:07;16.30;23.10
47576;DHT22;33304;52.456;13.328;2022-07-18T04:20:35;16.30;23.00
47576;DHT22;33304;52.456;13.328;2022-07-18T04:23:06;16.30;23.20
47576;DHT22;33304;52.456;13.328;2022-07-18T04:25:35;16.30;23.00
47576;DHT22;33304;52.456;13.328;2022-07-18T04:28:05;16.30;22.90
47576;DHT22;33304;52.456;13.328;2022-07-18T04:30:33;16.30;23.10
47576;DHT22;33304;52.456;13.328;2022-07-18T04:33:02;16.50;22.90
47576;DHT22;33304;52.456;13.328;2022-07-18T04:35:30;16.70;22.20
47576;DHT22;33304;52.456;13.328;2022-07-18T04:37:58;16.80;21.80
47576;DHT22;33304;52.456;13.328;2022-07-18T04:40:25;16.70;21.90
47576;DHT22;33304;52.456;13.328;2022-07-18T04:42:53;16.80;21.80
47576;DHT22;33304;52.456;13.328;2022-07-18T04:45:21;16.90;21.60
47576;DHT22;33304;52.456;13.328;2022-07-18T04:47:49;17.00;21.70
47576;DHT22;33304;52.456;13.328;2022-07-18T04:50:17;16.80;22.30
47576;DHT22;33304;52.456;13.328;2022-07-18T04:52:45;16.90;22.30
47576;DHT22;33304;52.456;13.328;2022-07-18T04:55:14;17.00;22.70
47576;DHT22;33304;52.456;13.328;2022-07-18T04:57:42;17.00;22.50
47576;DHT22;33304;52.456;13.328;2022-07-18T05:00:12;17.00;22.50
47576;DHT22;33304;52.456;13.328;2022-07-18T05:02:41;17.10;22.50
47576;DHT22;33304;52.456;13.328;2022-07-18T05:05:09;17.00;22.60
47576;DHT22;33304;52.456;13.328;2022-07-18T05:07:37;17.10;22.70
47576;DHT22;33304;52.456;13.328;2022-07-18T05:10:06;17.10;22.00
47576;DHT22;33304;52.456;13.328;2022-07-18T05:12:34;17.10;22.20
47576;DHT22;33304;52.456;13.328;2022-07-18T05:15:01;17.20;22.60
47576;DHT22;33304;52.456;13.328;2022-07-18T05:17:28;17.20;22.00
47576;DHT22;33304;52.456;13.328;2022-07-18T05:19:57;17.10;22.20
47576;DHT22;33304;52.456;13.328;2022-07-18T05:22:24;17.10;22.60
47576;DHT22;33304;52.456;13.328;2022-07-18T05:24:52;17.10;22.50
47576;DHT22;33304;52.456;13.328;2022-07-18T05:27:19;17.40;22.40
47576;DHT22;33304;52.456;13.328;2022-07-18T05:29:46;17.40;21.90
47576;DHT22;33304;52.456;13.328;2022-07-18T05:32:13;17.50;21.60
47576;DHT22;33304;52.456;13.328;2022-07-18T05:34:40;17.60;21.70
47576;DHT22;33304;52.456;13.328;2022-07-18T05:37:09;17.70;21.20
47576;DHT22;33304;52.456;13.328;2022-07-18T05:39:36;17.80;21.10
47576;DHT22;33304;52.456;13.328;2022-07-18T05:42:03;17.90;20.70
47576;DHT22;33304;52.456;13.328;2022-07-18T05:44:31;18.10;20.80
47576;DHT22;33304;52.456;13.328;2022-07-18T05:46:58;18.20;20.70
47576;DHT22;33304;52.456;13.328;2022-07-18T05:49:25;18.30;20.20
47576;DHT22;33304;52.456;13.328;2022-07-18T05:51:52;18.30;20.00
47576;DHT22;33304;52.456;13.328;2022-07-18T05:54:21;18.40;19.90
47576;DHT22;33304;52.456;13.328;2022-07-18T05:56:49;18.40;20.00
47576;DHT22;33304;52.456;13.328;2022-07-18T05:59:17;18.50;19.30
47576;DHT22;33304;52.456;13.328;2022-07-18T06:01:45;18.50;18.90
47576;DHT22;33304;52.456;13.328;2022-07-18T06:04:13;18.60;18.70
47576;DHT22;33304;52.456;13.328;2022-07-18T06:06:40;18.80;18.50
47576;DHT22;33304;52.456;13.328;2022-07-18T06:09:07;19.10;18.70
47576;DHT22;33304;52.456;13.328;2022-07-18T06:11:36;19.20;17.90
47576;DHT22;33304;52.456;13.328;2022-07-18T06:14:03;19.30;17.60
47576;DHT22;33304;52.456;13.328;2022-07-18T06:16:31;19.30;17.10
47576;DHT22;33304;52.456;13.328;2022-07-18T06:18:59;19.60;17.60
47576;DHT22;33304;52.456;13.328;2022-07-18T06:21:26;20.00;16.60
47576;DHT22;33304;52.456;13.328;2022-07-18T06:23:54;20.40;15.50
47576;DHT22;33304;52.456;13.328;2022-07-18T06:26:21;20.70;14.70
47576;DHT22;33304;52.456;13.328;2022-07-18T06:28:49;20.90;14.80
47576;DHT22;33304;52.456;13.328;2022-07-18T06:31:16;21.00;13.70
47576;DHT22;33304;52.456;13.328;2022-07-18T06:33:44;21.20;13.20
47576;DHT22;33304;52.456;13.328;2022-07-18T06:36:12;21.40;12.70
47576;DHT22;33304;52.456;13.328;2022-07-18T06:38:40;21.40;12.20
47576;DHT22;33304;52.456;13.328;2022-07-18T06:41:07;21.60;11.60
47576;DHT22;33304;52.456;13.328;2022-07-18T06:43:36;21.80;11.80
47576;DHT22;33304;52.456;13.328;2022-07-18T06:46:05;22.10;10.80
47576;DHT22;33304;52.456;13.328;2022-07-18T06:48:32;22.30;11.00
47576;DHT22;33304;52.456;13.328;2022-07-18T06:51:01;22.20;9.40
47576;DHT22;33304;52.456;13.328;2022-07-18T06:53:28;22.20;10.90
47576;DHT22;33304;52.456;13.328;2022-07-18T06:55:56;22.30;10.50
47576;DHT22;33304;52.456;13.328;2022-07-18T06:58:23;22.30;11.00
47576;DHT22;33304;52.456;13.328;2022-07-18T07:00:51;22.60;9.70
47576;DHT22;33304;52.456;13.328;2022-07-18T07:03:19;22.60;10.10
47576;DHT22;33304;52.456;13.328;2022-07-18T07:05:46;22.60;8.60
47576;DHT22;33304;52.456;13.328;2022-07-18T07:08:14;22.50;9.70
47576;DHT22;33304;52.456;13.328;2022-07-18T07:10:41;22.50;9.20
47576;DHT22;33304;52.456;13.328;2022-07-18T07:13:08;22.40;9.10
47576;DHT22;33304;52.456;13.328;2022-07-18T07:15:35;22.40;7.90
47576;DHT22;33304;52.456;13.328;2022-07-18T07:18:02;22.50;9.50
47576;DHT22;33304;52.456;13.328;2022-07-18T07:20:32;22.60;7.00
47576;DHT22;33304;52.456;13.328;2022-07-18T07:22:59;22.60;7.10
47576;DHT22;33304;52.456;13.328;2022-07-18T07:25:30;22.60;7.10
47576;DHT22;33304;52.456;13.328;2022-07-18T07:27:58;22.60;6.80
47576;DHT22;33304;52.456;13.328;2022-07-18T07:30:25;22.50;5.10
47576;DHT22;33304;52.456;13.328;2022-07-18T07:32:52;22.40;5.90
47576;DHT22;33304;52.456;13.328;2022-07-18T07:35:20;22.40;3.50
47576;DHT22;33304;52.456;13.328;2022-07-18T07:37:50;22.30;4.30
47576;DHT22;33304;52.456;13.328;2022-07-18T07:40:18;22.30;4.30
47576;DHT22;33304;52.456;13.328;2022-07-18T07:42:45;22.40;4.70
47576;DHT22;33304;52.456;13.328;2022-07-18T07:45:13;22.40;4.40
47576;DHT22;33304;52.456;13.328;2022-07-18T07:47:41;22.60;6.00
47576;DHT22;33304;52.456;13.328;2022-07-18T07:50:09;22.60;4.50
47576;DHT22;33304;52.456;13.328;2022-07-18T07:52:37;22.80;4.10
47576;DHT22;33304;52.456;13.328;2022-07-18T07:55:07;22.80;4.50
47576;DHT22;33304;52.456;13.328;2022-07-18T07:57:34;22.90;4.30
47576;DHT22;33304;52.456;13.328;2022-07-18T08:00:04;23.00;3.10
47576;DHT22;33304;52.456;13.328;2022-07-18T08:02:48;23.00;3.00
47576;DHT22;33304;52.456;13.328;2022-07-18T08:05:16;23.10;2.20
47576;DHT22;33304;52.456;13.328;2022-07-18T08:07:43;23.00;2.40
47576;DHT22;33304;52.456;13.328;2022-07-18T08:10:11;23.00;2.20
47576;DHT22;33304;52.456;13.328;2022-07-18T08:12:39;23.00;1.70
47576;DHT22;33304;52.456;13.328;2022-07-18T08:15:07;23.10;2.50
47576;DHT22;33304;52.456;13.328;2022-07-18T08:17:34;23.30;2.60
47576;DHT22;33304;52.456;13.328;2022-07-18T08:20:03;23.40;2.40
47576;DHT22;33304;52.456;13.328;2022-07-18T08:22:30;23.60;2.10
47576;DHT22;33304;52.456;13.328;2022-07-18T08:24:57;23.70;2.30
47576;DHT22;33304;52.456;13.328;2022-07-18T08:27:26;23.80;2.20
47576;DHT22;33304;52.456;13.328;2022-07-18T08:29:53;24.10;2.10
47576;DHT22;33304;52.456;13.328;2022-07-18T08:32:20;24.30;2.80
47576;DHT22;33304;52.456;13.328;2022-07-18T08:34:47;24.30;1.00
47576;DHT22;33304;52.456;13.328;2022-07-18T08:37:15;24.40;1.00
47576;DHT22;33304;52.456;13.328;2022-07-18T08:39:42;24.30;1.00
47576;DHT22;33304;52.456;13.328;2022-07-18T08:42:10;24.40;1.00
47576;DHT22;33304;52.456;13.328;2022-07-18T08:44:39;24.30;1.00
47576;DHT22;33304;52.456;13.328;2022-07-18T08:47:07;24.30;1.00
47576;DHT22;33304;52.456;13.328;2022-07-18T08:49:36;24.30;1.00
47576;DHT22;33304;52.456;13.328;2022-07-18T08:52:05;24.30;1.00
47576;DHT22;33304;52.456;13.328;2022-07-18T08:54:32;24.60;1.00
47576;DHT22;33304;52.456;13.328;2022-07-18T08:56:59;24.50;1.00
47576;DHT22;33304;52.456;13.328;2022-07-18T08:59:27;24.70;1.00
47576;DHT22;33304;52.456;13.328;2022-07-18T09:01:55;24.50;1.00
47576;DHT22;33304;52.456;13.328;2022-07-18T09:04:41;24.70;1.00
47576;DHT22;33304;52.456;13.328;2022-07-18T09:07:10;24.90;1.00
47576;DHT22;33304;52.456;13.328;2022-07-18T09:09:38;25.10;1.00
47576;DHT22;33304;52.456;13.328;2022-07-18T09:12:07;25.00;1.00
47576;DHT22;33304;52.456;13.328;2022-07-18T09:14:37;24.90;1.00
47576;DHT22;33304;52.456;13.328;2022-07-18T09:17:09;25.20;1.00
47576;DHT22;33304;52.456;13.328;2022-07-18T09:19:37;25.40;1.00
47576;DHT22;33304;52.456;13.328;2022-07-18T09:22:11;25.50;1.00
47576;DHT22;33304;52.456;13.328;2022-07-18T09:25:07;25.60;1.00
47576;DHT22;33304;52.456;13.328;2022-07-18T09:27:36;25.90;1.00
47576;DHT22;33304;52.456;13.328;2022-07-18T09:33:06;25.90;1.00
47576;DHT22;33304;52.456;13.328;2022-07-18T09:35:35;25.80;1.00
47576;DHT22;33304;52.456;13.328;2022-07-18T09:38:04;26.00;1.00
47576;DHT22;33304;52.456;13.328;2022-07-18T09:40:33;26.10;1.00
47576;DHT22;33304;52.456;13.328;2022-07-18T09:43:02;26.20;1.00
47576;DHT22;33304;52.456;13.328;2022-07-18T09:45:32;26.10;1.00
47576;DHT22;33304;52.456;13.328;2022-07-18T09:48:03;26.00;1.00
47576;DHT22;33304;52.456;13.328;2022-07-18T09:50:33;25.90;1.00
47576;DHT22;33304;52.456;13.328;2022-07-18T09:53:03;26.00;1.00
47576;DHT22;33304;52.456;13.328;2022-07-18T09:55:31;26.10;1.00
47576;DHT22;33304;52.456;13.328;2022-07-18T09:58:00;26.40;1.00
47576;DHT22;33304;52.456;13.328;2022-07-18T10:00:29;26.40;1.00
47576;DHT22;33304;52.456;13.328;2022-07-18T10:02:58;26.00;1.00
47576;DHT22;33304;52.456;13.328;2022-07-18T10:05:28;25.90;1.00
47576;DHT22;33304;52.456;13.328;2022-07-18T10:07:56;26.10;1.00
47576;DHT22;33304;52.456;13.328;2022-07-18T10:10:24;26.30;1.00
47576;DHT22;33304;52.456;13.328;2022-07-18T10:12:54;26.60;1.00
47576;DHT22;33304;52.456;13.328;2022-07-18T10:15:22;26.60;1.00
47576;DHT22;33304;52.456;13.328;2022-07-18T10:17:50;26.60;1.00
47576;DHT22;33304;52.456;13.328;2022-07-18T10:20:18;26.80;1.00
47576;DHT22;33304;52.456;13.328;2022-07-18T10:22:55;27.10;1.00
47576;DHT22;33304;52.456;13.328;2022-07-18T10:25:22;27.20;1.00
47576;DHT22;33304;52.456;13.328;2022-07-18T10:27:53;26.80;1.00
47576;DHT22;33304;52.456;13.328;2022-07-18T10:30:32;26.60;1.00
47576;DHT22;33304;52.456;13.328;2022-07-18T10:33:00;26.60;1.00
47576;DHT22;33304;52.456;13.328;2022-07-18T10:38:32;27.10;1.00
47576;DHT22;33304;52.456;13.328;2022-07-18T10:41:05;26.90;1.00
47576;DHT22;33304;52.456;13.328;2022-07-18T10:43:34;27.10;1.00
47576;DHT22;33304;52.456;13.328;2022-07-18T10:46:04;27.00;1.00
47576;DHT22;33304;52.456;13.328;2022-07-18T10:48:50;27.20;1.00
47576;DHT22;33304;52.456;13.328;2022-07-18T10:51:18;27.80;1.00
47576;DHT22;33304;52.456;13.328;2022-07-18T10:54:09;28.10;1.00
47576;DHT22;33304;52.456;13.328;2022-07-18T10:57:06;28.00;1.00
47576;DHT22;33304;52.456;13.328;2022-07-18T10:59:35;27.70;1.00
47576;DHT22;33304;52.456;13.328;2022-07-18T11:02:05;27.90;1.00
47576;DHT22;33304;52.456;13.328;2022-07-18T11:04:36;27.70;1.00
47576;DHT22;33304;52.456;13.328;2022-07-18T11:07:10;27.90;1.00
47576;DHT22;33304;52.456;13.328;2022-07-18T11:09:43;27.90;1.00
47576;DHT22;33304;52.456;13.328;2022-07-18T11:12:24;27.90;1.00
47576;DHT22;33304;52.456;13.328;2022-07-18T11:14:59;28.00;1.00
47576;DHT22;33304;52.456;13.328;2022-07-18T11:17:54;27.80;1.00
47576;DHT22;33304;52.456;13.328;2022-07-18T11:20:25;28.20;1.00
47576;DHT22;33304;52.456;13.328;2022-07-18T11:22:53;28.90;1.00
47576;DHT22;33304;52.456;13.328;2022-07-18T11:25:24;29.20;1.00
47576;DHT22;33304;52.456;13.328;2022-07-18T11:27:52;29.00;1.00
47576;DHT22;33304;52.456;13.328;2022-07-18T11:30:21;28.90;1.00
47576;DHT22;33304;52.456;13.328;2022-07-18T11:32:48;28.70;1.00
47576;DHT22;33304;52.456;13.328;2022-07-18T11:35:21;28.80;1.00
47576;DHT22;33304;52.456;13.328;2022-07-18T11:37:49;29.30;1.00
47576;DHT22;33304;52.456;13.328;2022-07-18T11:40:18;29.50;1.00
47576;DHT22;33304;52.456;13.328;2022-07-18T11:42:46;29.80;1.00
47576;DHT22;33304;52.456;13.328;2022-07-18T11:45:15;30.10;1.00
47576;DHT22;33304;52.456;13.328;2022-07-18T11:47:47;30.30;1.00
47576;DHT22;33304;52.456;13.328;2022-07-18T11:50:16;30.20;1.00
47576;DHT22;33304;52.456;13.328;2022-07-18T11:52:44;30.00;1.00
47576;DHT22;33304;52.456;13.328;2022-07-18T11:55:12;29.70;1.00
47576;DHT22;33304;52.456;13.328;2022-07-18T11:57:40;29.50;1.00
47576;DHT22;33304;52.456;13.328;2022-07-18T12:00:17;29.70;1.00
47576;DHT22;33304;52.456;13.328;2022-07-18T12:02:45;30.00;1.00
47576;DHT22;33304;52.456;13.328;2022-07-18T12:05:12;29.90;1.00
47576;DHT22;33304;52.456;13.328;2022-07-18T12:07:39;29.50;1.00
47576;DHT22;33304;52.456;13.328;2022-07-18T12:10:16;30.00;1.00
47576;DHT22;33304;52.456;13.328;2022-07-18T12:12:44;30.40;1.00
47576;DHT22;33304;52.456;13.328;2022-07-18T12:15:14;30.90;1.00
47576;DHT22;33304;52.456;13.328;2022-07-18T12:17:46;30.40;1.00
47576;DHT22;33304;52.456;13.328;2022-07-18T12:20:15;30.80;1.00
47576;DHT22;33304;52.456;13.328;2022-07-18T12:23:08;31.20;1.00
47576;DHT22;33304;52.456;13.328;2022-07-18T12:25:56;31.80;1.00
47576;DHT22;33304;52.456;13.328;2022-07-18T12:28:25;31.90;1.00
47576;DHT22;33304;52.456;13.328;2022-07-18T12:30:54;32.40;1.00
47576;DHT22;33304;52.456;13.328;2022-07-18T12:33:21;32.60;1.00
47576;DHT22;33304;52.456;13.328;2022-07-18T12:35:59;31.90;1.00
47576;DHT22;33304;52.456;13.328;2022-07-18T12:38:27;31.10;1.00
47576;DHT22;33304;52.456;13.328;2022-07-18T12:40:56;30.60;1.00
47576;DHT22;33304;52.456;13.328;2022-07-18T12:43:26;30.30;1.00
47576;DHT22;33304;52.456;13.328;2022-07-18T12:45:55;29.90;1.00
47576;DHT22;33304;52.456;13.328;2022-07-18T12:48:23;30.20;1.00
47576;DHT22;33304;52.456;13.328;2022-07-18T12:50:58;30.30;1.00
47576;DHT22;33304;52.456;13.328;2022-07-18T12:53:26;30.50;1.00
47576;DHT22;33304;52.456;13.328;2022-07-18T12:55:54;30.70;1.00
47576;DHT22;33304;52.456;13.328;2022-07-18T12:58:21;31.00;1.00
47576;DHT22;33304;52.456;13.328;2022-07-18T13:00:48;30.80;1.00
47576;DHT22;33304;52.456;13.328;2022-07-18T13:03:17;30.60;1.00
47576;DHT22;33304;52.456;13.328;2022-07-18T13:05:44;30.70;1.00
47576;DHT22;33304;52.456;13.328;2022-07-18T13:08:11;31.00;1.00
47576;DHT22;33304;52.456;13.328;2022-07-18T13:10:39;31.20;1.00
47576;DHT22;33304;52.456;13.328;2022-07-18T13:13:08;31.40;1.00
47576;DHT22;33304;52.456;13.328;2022-07-18T13:15:36;31.50;1.00
47576;DHT22;33304;52.456;13.328;2022-07-18T13:18:04;31.10;1.00
47576;DHT22;33304;52.456;13.328;2022-07-18T13:20:32;30.40;1.00
47576;DHT22;33304;52.456;13.328;2022-07-18T13:23:00;29.90;1.00
47576;DHT22;33304;52.456;13.328;2022-07-18T13:25:30;30.00;1.00
47576;DHT22;33304;52.456;13.328;2022-07-18T13:27:59;29.90;1.00
47576;DHT22;33304;52.456;13.328;2022-07-18T13:30:26;30.00;1.00
47576;DHT22;33304;52.456;13.328;2022-07-18T13:32:53;30.10;1.00
47576;DHT22;33304;52.456;13.328;2022-07-18T13:35:20;30.10;1.00
47576;DHT22;33304;52.456;13.328;2022-07-18T13:37:49;30.20;1.00
47576;DHT22;33304;52.456;13.328;2022-07-18T13:40:16;30.30;1.00
47576;DHT22;33304;52.456;13.328;2022-07-18T13:42:44;29.90;1.00
47576;DHT22;33304;52.456;13.328;2022-07-18T13:45:11;30.10;1.00
47576;DHT22;33304;52.456;13.328;2022-07-18T13:47:41;30.10;1.00
47576;DHT22;33304;52.456;13.328;2022-07-18T13:50:09;30.10;1.00
47576;DHT22;33304;52.456;13.328;2022-07-18T13:52:36;30.40;1.00
47576;DHT22;33304;52.456;13.328;2022-07-18T13:55:06;30.80;1.00
47576;DHT22;33304;52.456;13.328;2022-07-18T13:57:33;31.10;1.00
47576;DHT22;33304;52.456;13.328;2022-07-18T14:00:00;31.00;1.00
47576;DHT22;33304;52.456;13.328;2022-07-18T14:02:31;31.10;1.00
47576;DHT22;33304;52.456;13.328;2022-07-18T14:04:58;31.40;1.00
47576;DHT22;33304;52.456;13.328;2022-07-18T14:07:25;31.40;1.00
47576;DHT22;33304;52.456;13.328;2022-07-18T14:09:52;31.60;1.00
47576;DHT22;33304;52.456;13.328;2022-07-18T14:12:21;31.50;1.00
47576;DHT22;33304;52.456;13.328;2022-07-18T14:14:48;32.10;1.00
47576;DHT22;33304;52.456;13.328;2022-07-18T14:17:15;32.60;1.00
47576;DHT22;33304;52.456;13.328;2022-07-18T14:19:42;33.50;1.00
47576;DHT22;33304;52.456;13.328;2022-07-18T14:22:09;34.60;1.00
47576;DHT22;33304;52.456;13.328;2022-07-18T14:24:38;35.50;1.00
47576;DHT22;33304;52.456;13.328;2022-07-18T14:27:05;36.20;1.00
47576;DHT22;33304;52.456;13.328;2022-07-18T14:29:33;36.50;1.00
47576;DHT22;33304;52.456;13.328;2022-07-18T14:32:02;36.60;1.00
47576;DHT22;33304;52.456;13.328;2022-07-18T14:34:30;36.70;1.00
47576;DHT22;33304;52.456;13.328;2022-07-18T14:36:57;35.70;1.00
47576;DHT22;33304;52.456;13.328;2022-07-18T14:39:24;35.50;1.00
47576;DHT22;33304;52.456;13.328;2022-07-18T14:41:52;35.80;1.00
47576;DHT22;33304;52.456;13.328;2022-07-18T14:44:19;36.10;1.00
47576;DHT22;33304;52.456;13.328;2022-07-18T14:46:48;36.10;1.00
47576;DHT22;33304;52.456;13.328;2022-07-18T14:49:15;35.90;1.00
47576;DHT22;33304;52.456;13.328;2022-07-18T14:51:42;36.10;1.00
47576;DHT22;33304;52.456;13.328;2022-07-18T14:54:09;36.60;1.00
47576;DHT22;33304;52.456;13.328;2022-07-18T14:56:37;36.60;1.00
47576;DHT22;33304;52.456;13.328;2022-07-18T14:59:05;35.80;1.00
47576;DHT22;33304;52.456;13.328;2022-07-18T15:01:32;34.80;1.00
47576;DHT22;33304;52.456;13.328;2022-07-18T15:04:00;34.90;1.00
47576;DHT22;33304;52.456;13.328;2022-07-18T15:06:28;35.40;1.00
47576;DHT22;33304;52.456;13.328;2022-07-18T15:08:55;35.20;1.00
47576;DHT22;33304;52.456;13.328;2022-07-18T15:11:22;34.60;1.00
47576;DHT22;33304;52.456;13.328;2022-07-18T15:13:50;33.70;1.00
47576;DHT22;33304;52.456;13.328;2022-07-18T15:16:17;33.60;1.00
47576;DHT22;33304;52.456;13.328;2022-07-18T15:18:44;34.20;1.00
47576;DHT22;33304;52.456;13.328;2022-07-18T15:21:13;34.10;1.00
47576;DHT22;33304;52.456;13.328;2022-07-18T15:23:40;33.80;1.00
47576;DHT22;33304;52.456;13.328;2022-07-18T15:26:07;33.30;1.00
47576;DHT22;33304;52.456;13.328;2022-07-18T15:28:35;32.80;1.00
47576;DHT22;33304;52.456;13.328;2022-07-18T15:31:02;31.90;1.00
47576;DHT22;33304;52.456;13.328;2022-07-18T15:33:29;31.40;1.00
47576;DHT22;33304;52.456;13.328;2022-07-18T15:35:56;31.60;1.00
47576;DHT22;33304;52.456;13.328;2022-07-18T15:38:25;32.10;1.00
47576;DHT22;33304;52.456;13.328;2022-07-18T15:40:52;32.50;1.00